首页
METAR-TAF:

METAR-TAF

机场 :

Hancock, 密歇根州, 美国

纬度: 47-10-06N, 经度: 088-29-20W, 海拔: 334米

当前天气观测

该预报发布于1小时和6分钟前的07:53 UTC
风速7节,风向
温度 3°C
湿度 52%
气压 1019 hPa
能見度: 16.1公里
多云层高于11000英尺

METAR: KCMX 030753Z AUTO 08007KT 10SM BKN110 03/M06 A3008 RMK AO2 SLP195 T00331056 /

时间: 04:59 (08:59 UTC)

预报

该预报发布于3小时和26分钟前的05:33 UTC
预报有效从03日的 06点(UTC)到 04日的 06点(UTC)
风速9节,风向
能見度: 10公里
多云层高于12000英尺
从 03日的 2300点(UTC)
风速5节,风向西转西南
能見度: 10公里
多云层高于3000英尺
从 04日的 0200点(UTC)
风速11节,风向西
能見度: 4.8公里
阴天层高于1300英尺
小阵雨

TAF: KCMX 030533Z 0306/0406 10009KT P6SM BKN120 FM032300 25005KT P6SM BKN030 FM040200 26011KT 3SM -SHRA OVC013

超过4000个机场的气象观测和天气预报(METAR&TAF报告)。

可查询的气象台以黄色和红色小点在地图上表示。

将鼠标移到小点上方,可查看气象台名称。

然后点击查看天气观测和预报。

如需切换地图:点击带黑十字的绿色按钮放大地图;点击带横线的绿色按钮缩小地图;或者点击绿色箭头查看邻近地区的地图。


METAR-TAF: